Time;durP1;ratioP1;P1;durP2;ratioP2;P2;SDS_P1;SDS_P2;PMS_P1;PMS_P2;Temp;Humidity;BMP_temperature;BMP_pressure;BME280_temperature;BME280_humidity;BME280_pressure;Samples;Min_cycle;Max_cycle;Signal;HPM_P1;HPM_P2
2023/10/16 00:00:47;;;;;;;1.27;0.80;;;6.50;99.90;;;;;;5072591;28;20517;-56
2023/10/16 00:03:17;;;;;;;1.00;0.90;;;6.50;99.90;;;;;;5073396;28;20254;-56
2023/10/16 00:05:51;;;;;;;1.23;1.23;;;6.40;99.90;;;;;;5073608;28;20198;-56
2023/10/16 00:08:19;;;;;;;0.80;0.80;;;6.40;99.90;;;;;;5073633;28;20275;-56
2023/10/16 00:10:56;;;;;;;0.70;0.70;;;6.40;99.90;;;;;;5072188;28;20214;-56
2023/10/16 00:13:26;;;;;;;1.13;1.10;;;6.40;99.90;;;;;;5073065;28;20722;-56
2023/10/16 00:15:55;;;;;;;1.13;1.03;;;6.30;99.90;;;;;;5072347;28;20204;-56
2023/10/16 00:18:24;;;;;;;1.40;0.97;;;6.40;99.90;;;;;;5073409;28;20219;-56
2023/10/16 00:20:56;;;;;;;1.00;1.00;;;6.40;99.90;;;;;;5072321;28;20238;-56
2023/10/16 00:23:25;;;;;;;1.50;1.40;;;6.40;99.90;;;;;;5072749;28;20205;-56
2023/10/16 00:25:56;;;;;;;1.00;1.00;;;6.40;99.90;;;;;;5069416;28;20199;-56
2023/10/16 00:28:23;;;;;;;2.13;1.63;;;6.40;99.90;;;;;;5067831;28;20273;-56
2023/10/16 00:30:51;;;;;;;1.50;1.40;;;6.30;99.90;;;;;;5071838;28;20314;-56
2023/10/16 00:33:18;;;;;;;3.10;1.40;;;6.30;99.90;;;;;;5072646;28;20650;-56
2023/10/16 00:35:48;;;;;;;3.33;2.03;;;6.30;99.90;;;;;;5072890;28;20268;-56
2023/10/16 00:38:15;;;;;;;3.50;1.77;;;6.40;99.90;;;;;;5072088;28;20710;-56
2023/10/16 00:40:44;;;;;;;1.73;1.10;;;6.30;99.90;;;;;;5072002;28;20306;-56
2023/10/16 00:43:20;;;;;;;1.20;1.20;;;6.30;99.90;;;;;;5067265;28;20222;-56
2023/10/16 00:45:59;;;;;;;1.00;1.00;;;6.30;99.90;;;;;;5069804;28;20206;-56
2023/10/16 00:48:27;;;;;;;1.53;0.80;;;6.20;99.90;;;;;;5072705;28;20309;-56
2023/10/16 00:50:58;;;;;;;2.13;1.17;;;6.30;99.90;;;;;;5071738;28;20199;-56
2023/10/16 00:53:27;;;;;;;1.87;1.00;;;6.30;99.90;;;;;;5072434;28;20336;-56
2023/10/16 00:55:56;;;;;;;3.43;0.93;;;6.20;99.90;;;;;;5072750;28;20279;-56
2023/10/16 00:58:23;;;;;;;0.90;0.90;;;6.20;99.90;;;;;;5071113;28;20228;-56
2023/10/16 01:00:57;;;;;;;1.23;1.13;;;6.10;99.90;;;;;;5071179;28;20199;-56
2023/10/16 01:03:27;;;;;;;2.30;1.27;;;6.10;99.90;;;;;;5072472;28;20213;-56
2023/10/16 01:05:58;;;;;;;3.70;1.50;;;6.00;99.90;;;;;;5072481;28;20239;-56
2023/10/16 01:08:25;;;;;;;1.30;1.30;;;6.00;99.90;;;;;;5072872;28;20661;-56
2023/10/16 01:10:57;;;;;;;1.93;1.50;;;6.00;99.90;;;;;;5070623;28;20709;-56
2023/10/16 01:13:26;;;;;;;1.30;1.20;;;6.00;99.90;;;;;;5071278;28;20224;-56
2023/10/16 01:15:56;;;;;;;2.17;1.83;;;6.00;99.90;;;;;;5067525;28;20645;-56
2023/10/16 01:18:23;;;;;;;1.70;1.70;;;6.00;99.90;;;;;;5072735;28;20276;-56
2023/10/16 01:20:53;;;;;;;2.20;2.10;;;6.00;99.90;;;;;;5072844;28;20206;-56
2023/10/16 01:23:22;;;;;;;4.63;2.23;;;6.10;99.90;;;;;;5071304;28;20493;-56
2023/10/16 01:25:53;;;;;;;2.17;2.07;;;6.10;99.90;;;;;;5071517;28;20199;-56
2023/10/16 01:28:21;;;;;;;3.13;2.40;;;6.10;99.90;;;;;;5069753;28;20230;-56
2023/10/16 01:30:53;;;;;;;2.33;2.13;;;6.00;99.90;;;;;;5071991;28;20207;-56
2023/10/16 01:33:23;;;;;;;3.30;3.10;;;6.00;99.90;;;;;;5070976;28;20331;-56
2023/10/16 01:35:54;;;;;;;3.47;2.23;;;5.90;99.90;;;;;;5070655;28;20251;-56
2023/10/16 01:38:24;;;;;;;2.73;2.27;;;5.90;99.90;;;;;;5072093;28;20262;-56
2023/10/16 01:41:07;;;;;;;2.30;2.20;;;5.90;99.90;;;;;;5072292;28;20229;-56
2023/10/16 01:43:35;;;;;;;2.20;2.10;;;5.90;99.90;;;;;;5072082;28;20201;-56
2023/10/16 01:46:07;;;;;;;2.30;2.20;;;6.00;99.90;;;;;;5070656;28;20211;-56
2023/10/16 01:48:37;;;;;;;2.27;2.17;;;5.90;99.90;;;;;;5071977;28;20622;-56
2023/10/16 01:51:05;;;;;;;2.20;2.10;;;5.90;99.90;;;;;;5072557;28;20208;-56
2023/10/16 01:53:36;;;;;;;2.00;1.80;;;5.80;99.90;;;;;;5072035;28;20314;-56
2023/10/16 01:56:12;;;;;;;2.07;1.97;;;5.80;99.90;;;;;;5072212;28;20202;-56
2023/10/16 01:58:41;;;;;;;3.03;2.73;;;5.80;99.90;;;;;;5071075;28;20216;-56
2023/10/16 02:01:09;;;;;;;1.60;1.57;;;5.80;99.90;;;;;;5064109;28;20203;-56
2023/10/16 02:03:36;;;;;;;2.47;2.37;;;5.80;99.90;;;;;;5060413;28;20251;-56
2023/10/16 02:06:03;;;;;;;2.70;2.60;;;5.70;99.90;;;;;;5071686;28;20199;-56
2023/10/16 02:08:30;;;;;;;2.40;2.30;;;5.70;99.90;;;;;;5071776;28;20281;-56
2023/10/16 02:10:59;;;;;;;9.17;2.80;;;5.80;99.90;;;;;;5070702;28;20204;-56
2023/10/16 02:13:25;;;;;;;2.80;2.70;;;5.90;99.90;;;;;;5071233;28;20674;-56
2023/10/16 02:15:52;;;;;;;2.40;2.20;;;5.80;99.90;;;;;;5071570;28;20199;-56
2023/10/16 02:18:22;;;;;;;2.57;2.40;;;5.80;99.90;;;;;;5069731;28;20214;-56
2023/10/16 02:20:53;;;;;;;1.67;1.60;;;5.70;99.90;;;;;;5071152;28;20249;-56
2023/10/16 02:23:20;;;;;;;2.47;2.37;;;5.70;99.90;;;;;;5068188;28;20554;-56
2023/10/16 02:25:47;;;;;;;4.10;2.30;;;5.70;99.90;;;;;;5069895;28;20207;-56
2023/10/16 02:28:19;;;;;;;2.30;2.20;;;5.70;99.90;;;;;;5071202;28;20775;-56
2023/10/16 02:30:49;;;;;;;2.40;2.30;;;5.60;99.90;;;;;;5071720;28;20198;-56
2023/10/16 02:33:22;;;;;;;2.43;2.33;;;5.60;99.90;;;;;;5071239;28;20300;-56
2023/10/16 02:35:53;;;;;;;2.67;2.47;;;5.60;99.90;;;;;;5070340;28;20203;-56
2023/10/16 02:38:27;;;;;;;2.43;2.33;;;5.60;99.90;;;;;;5070288;28;20239;-56
2023/10/16 02:41:00;;;;;;;2.37;2.27;;;5.60;99.90;;;;;;5071295;28;20231;-56
2023/10/16 02:43:29;;;;;;;2.17;2.07;;;5.60;99.90;;;;;;5071133;28;20198;-56
2023/10/16 02:46:00;;;;;;;1.70;1.60;;;5.60;99.90;;;;;;5071539;28;20201;-56
2023/10/16 02:48:28;;;;;;;2.47;1.57;;;5.60;99.90;;;;;;5069393;28;20219;-56
2023/10/16 02:50:59;;;;;;;2.03;1.60;;;5.50;99.90;;;;;;5071133;28;20241;-56
2023/10/16 02:53:27;;;;;;;1.90;1.80;;;5.60;99.90;;;;;;5070775;28;20222;-56
2023/10/16 02:55:58;;;;;;;1.93;1.83;;;5.50;99.90;;;;;;5061921;28;20252;-56
2023/10/16 02:58:28;;;;;;;4.23;2.73;;;5.50;99.90;;;;;;5071301;28;20282;-57
2023/10/16 03:00:56;;;;;;;1.77;1.77;;;5.50;99.90;;;;;;5069323;28;20285;-56
2023/10/16 03:03:26;;;;;;;1.77;1.67;;;5.50;99.90;;;;;;5070726;28;20618;-56
2023/10/16 03:05:55;;;;;;;1.80;1.70;;;5.50;99.90;;;;;;5070951;28;20198;-56
2023/10/16 03:08:29;;;;;;;2.23;2.23;;;5.50;99.90;;;;;;5071308;28;20224;-56
2023/10/16 03:10:59;;;;;;;1.83;1.73;;;5.60;99.90;;;;;;5069733;28;20306;-56
2023/10/16 03:13:27;;;;;;;2.03;1.43;;;5.50;99.90;;;;;;5069092;28;20225;-56
2023/10/16 03:16:05;;;;;;;1.93;1.83;;;5.50;99.90;;;;;;5070320;28;20614;-56
2023/10/16 03:18:32;;;;;;;1.03;1.03;;;5.40;99.90;;;;;;5068978;28;20217;-56
2023/10/16 03:21:26;;;;;;;2.07;1.33;;;5.40;99.90;;;;;;5070834;28;20258;-56
2023/10/16 03:23:53;;;;;;;2.03;1.30;;;5.40;99.90;;;;;;5070783;28;20206;-56
2023/10/16 03:26:25;;;;;;;0.87;0.87;;;5.40;99.90;;;;;;5068912;28;20212;-56
2023/10/16 03:28:54;;;;;;;1.77;1.17;;;5.40;99.90;;;;;;5068668;28;20313;-56
2023/10/16 03:31:21;;;;;;;1.80;1.60;;;5.40;99.90;;;;;;5070756;28;20236;-56
2023/10/16 03:33:48;;;;;;;0.70;0.70;;;5.40;99.90;;;;;;5069022;28;20258;-56
2023/10/16 03:36:15;;;;;;;1.40;0.80;;;5.40;99.90;;;;;;5070515;28;20254;-56
2023/10/16 03:38:42;;;;;;;1.73;1.10;;;5.30;99.90;;;;;;5070647;28;20474;-56
2023/10/16 03:41:19;;;;;;;1.70;0.80;;;5.30;99.90;;;;;;5070747;28;20214;-56
2023/10/16 03:43:46;;;;;;;1.03;0.70;;;5.30;99.90;;;;;;5070545;28;20572;-56
2023/10/16 03:46:15;;;;;;;1.10;1.10;;;5.40;99.90;;;;;;5066333;28;20272;-56
2023/10/16 03:48:44;;;;;;;0.77;0.77;;;5.30;99.90;;;;;;5069006;28;20228;-56
2023/10/16 03:51:12;;;;;;;0.70;0.70;;;5.30;99.90;;;;;;5070634;28;20602;-56
2023/10/16 03:53:40;;;;;;;1.73;0.80;;;5.30;99.90;;;;;;5070151;28;20253;-56
2023/10/16 03:56:07;;;;;;;2.00;0.80;;;5.20;99.90;;;;;;5068861;28;20211;-56
2023/10/16 03:58:35;;;;;;;0.60;0.60;;;5.20;99.90;;;;;;5071011;28;20465;-56
2023/10/16 04:01:08;;;;;;;1.33;0.70;;;5.20;99.90;;;;;;5074126;28;20239;-56
2023/10/16 04:03:47;;;;;;;0.77;0.70;;;5.20;99.90;;;;;;5073966;28;20199;-55
2023/10/16 04:06:19;;;;;;;0.80;0.80;;;5.20;99.90;;;;;;5074482;28;20284;-56
2023/10/16 04:08:46;;;;;;;1.80;1.10;;;5.20;99.90;;;;;;5072497;28;20281;-56
2023/10/16 04:11:13;;;;;;;1.20;1.10;;;5.10;99.90;;;;;;5073989;28;20795;-56
2023/10/16 04:13:47;;;;;;;1.13;1.03;;;5.20;99.90;;;;;;5073698;28;20328;-55
2023/10/16 04:16:30;;;;;;;1.17;1.10;;;5.10;99.90;;;;;;5071960;28;20204;-56
2023/10/16 04:19:34;;;;;;;3.67;1.37;;;5.30;99.90;;;;;;5070320;28;20584;-56
2023/10/16 04:21:54;;;;;;;1.30;1.30;;;5.20;99.90;;;;;;5072864;28;20285;-56
2023/10/16 04:24:30;;;;;;;1.50;1.40;;;5.10;99.90;;;;;;5073628;28;20244;-56
2023/10/16 04:27:29;;;;;;;1.37;1.37;;;5.10;99.90;;;;;;5072487;28;20216;-55
2023/10/16 04:29:50;;;;;;;1.77;1.77;;;5.20;99.90;;;;;;5071647;28;20280;-56
2023/10/16 04:32:37;;;;;;;1.73;1.63;;;5.00;99.90;;;;;;5072550;28;20640;-55
2023/10/16 04:35:29;;;;;;;2.00;1.40;;;5.00;99.90;;;;;;5065468;28;20670;-55
2023/10/16 04:37:55;;;;;;;1.23;1.23;;;4.90;99.90;;;;;;5073249;28;20667;-55
2023/10/16 04:41:51;;;;;;;1.20;1.10;;;5.00;99.90;;;;;;5073898;28;20240;-55
2023/10/16 04:43:19;;;;;;;1.33;1.20;;;4.90;99.90;;;;;;5066059;28;20192;-56
2023/10/16 04:45:59;;;;;;;1.00;1.00;;;4.80;99.90;;;;;;5066560;28;20217;-55
2023/10/16 04:51:16;;;;;;;1.70;1.60;;;4.70;99.90;;;;;;5065328;28;20582;-55
2023/10/16 04:53:58;;;;;;;2.73;2.57;;;4.80;99.90;;;;;;5072894;28;20222;-56
2023/10/16 04:59:58;;;;;;;3.27;3.07;;;4.70;99.90;;;;;;5108652;27;20552;-56
2023/10/16 05:02:33;;;;;;;2.80;2.60;;;4.70;99.90;;;;;;5099178;28;20202;-56
2023/10/16 05:05:32;;;;;;;2.83;2.73;;;4.70;99.90;;;;;;5085003;28;20191;-56
2023/10/16 05:08:30;;;;;;;3.00;2.37;;;4.60;99.90;;;;;;5089744;28;20237;-56
2023/10/16 05:13:55;;;;;;;2.97;2.87;;;4.60;99.90;;;;;;5082166;28;20208;-56
2023/10/16 05:16:30;;;;;;;3.67;3.37;;;4.70;99.90;;;;;;5100855;28;20619;-56
2023/10/16 05:19:16;;;;;;;3.27;3.07;;;4.70;99.90;;;;;;5108064;28;20271;-56
2023/10/16 06:14:12;;;;;;;7.43;5.17;;;4.70;99.90;;;;;;5033542;28;20203;-56
2023/10/16 06:16:40;;;;;;;5.93;5.33;;;4.80;99.90;;;;;;5089591;28;20203;-55
2023/10/16 06:19:14;;;;;;;7.37;6.67;;;4.90;99.90;;;;;;5082308;28;20276;-55
2023/10/16 06:21:47;;;;;;;8.97;6.13;;;4.90;99.90;;;;;;5091101;28;20289;-56
2023/10/16 06:27:08;;;;;;;6.07;5.67;;;5.10;99.90;;;;;;5066232;28;20278;-55
2023/10/16 06:29:39;;;;;;;6.50;5.90;;;5.30;99.90;;;;;;5091159;22;20481;-57
2023/10/16 06:32:18;;;;;;;11.33;7.83;;;5.30;99.90;;;;;;5034901;28;20199;-55
2023/10/16 06:34:45;;;;;;;10.67;8.43;;;5.40;99.90;;;;;;5033009;28;20215;-54
2023/10/16 06:37:16;;;;;;;10.90;9.50;;;5.40;99.90;;;;;;5031404;28;20198;-55
2023/10/16 06:39:44;;;;;;;11.83;8.17;;;5.50;99.90;;;;;;5020035;28;20227;-55
2023/10/16 06:42:17;;;;;;;15.30;10.17;;;5.50;99.90;;;;;;5008976;28;20232;-55
2023/10/16 06:44:50;;;;;;;15.63;10.80;;;5.60;99.90;;;;;;5022156;28;20686;-52
2023/10/16 06:47:17;;;;;;;11.23;9.83;;;5.50;99.90;;;;;;5008383;28;21521;-52
2023/10/16 06:49:46;;;;;;;13.60;8.70;;;5.60;99.90;;;;;;5012320;28;20224;-52
2023/10/16 06:52:17;;;;;;;8.93;7.00;;;5.60;99.90;;;;;;5009508;28;20199;-52
2023/10/16 06:54:45;;;;;;;8.80;6.80;;;5.60;99.90;;;;;;5002817;28;20206;-52
2023/10/16 06:57:12;;;;;;;7.13;6.47;;;5.70;99.90;;;;;;5008223;28;20715;-52
2023/10/16 06:59:39;;;;;;;6.50;5.90;;;5.70;99.90;;;;;;5004307;28;20234;-52
2023/10/16 07:02:08;;;;;;;8.07;6.53;;;5.80;99.90;;;;;;5013790;28;20264;-52
2023/10/16 07:04:40;;;;;;;11.23;7.30;;;5.90;99.90;;;;;;5013934;28;20202;-52
2023/10/16 07:07:14;;;;;;;11.57;6.20;;;5.90;99.90;;;;;;5014291;28;20202;-52
2023/10/16 07:09:47;;;;;;;6.13;5.53;;;5.90;99.90;;;;;;5014116;28;20262;-52
2023/10/16 07:12:16;;;;;;;7.07;6.37;;;5.90;99.90;;;;;;5012603;28;20213;-52
2023/10/16 07:14:45;;;;;;;8.67;6.63;;;5.90;99.90;;;;;;5005658;28;20205;-52
2023/10/16 07:17:13;;;;;;;9.23;7.57;;;6.00;99.90;;;;;;5013464;28;20210;-52
2023/10/16 07:19:41;;;;;;;6.43;5.83;;;6.10;99.90;;;;;;5013216;28;20593;-52
2023/10/16 07:22:10;;;;;;;7.27;6.57;;;6.20;99.90;;;;;;5002939;28;20292;-52
2023/10/16 07:24:37;;;;;;;6.43;5.87;;;6.20;99.90;;;;;;4998934;28;20213;-52
2023/10/16 07:27:12;;;;;;;7.80;6.20;;;6.30;99.90;;;;;;5011613;28;20276;-52
2023/10/16 07:29:41;;;;;;;6.23;5.63;;;6.70;99.90;;;;;;5012582;28;20234;-52
2023/10/16 07:32:08;;;;;;;6.90;6.27;;;6.30;99.90;;;;;;5005331;28;20199;-52
2023/10/16 07:34:35;;;;;;;13.00;7.73;;;6.10;99.90;;;;;;5013532;28;20569;-52
2023/10/16 07:37:02;;;;;;;8.47;6.57;;;6.20;99.90;;;;;;5013580;28;20205;-52
2023/10/16 07:39:31;;;;;;;7.63;6.10;;;6.20;99.90;;;;;;5013362;28;20597;-52
2023/10/16 07:41:59;;;;;;;7.73;6.40;;;6.30;99.90;;;;;;5013200;28;20255;-52
2023/10/16 07:44:28;;;;;;;9.80;7.67;;;6.30;99.90;;;;;;5012717;28;20672;-52
2023/10/16 07:46:55;;;;;;;7.00;6.37;;;6.30;99.90;;;;;;5004883;28;20199;-52
2023/10/16 07:49:25;;;;;;;8.07;6.87;;;6.40;99.90;;;;;;5006373;28;20758;-52
2023/10/16 07:51:55;;;;;;;8.90;7.97;;;6.50;99.90;;;;;;5004388;28;20209;-52
2023/10/16 07:54:22;;;;;;;11.60;6.80;;;6.60;99.90;;;;;;5012881;28;20205;-52
2023/10/16 07:56:50;;;;;;;7.27;6.27;;;6.70;99.90;;;;;;5016812;28;20261;-52
2023/10/16 07:59:19;;;;;;;9.47;7.27;;;6.70;99.90;;;;;;5024476;28;20201;-52
2023/10/16 08:01:52;;;;;;;11.37;9.30;;;6.80;99.90;;;;;;5025735;28;20296;-52
2023/10/16 08:04:35;;;;;;;29.20;17.00;;;6.90;99.90;;;;;;5003755;28;20206;-52
2023/10/16 08:07:05;;;;;;;11.57;9.20;;;6.90;99.90;;;;;;5009877;28;20246;-52
2023/10/16 08:12:35;;;;;;;7.77;7.07;;;7.00;99.90;;;;;;4974073;28;20260;-53
2023/10/16 08:15:14;;;;;;;8.47;6.83;;;7.10;99.90;;;;;;5012649;28;20230;-53
2023/10/16 08:17:45;;;;;;;14.43;10.53;;;7.10;99.90;;;;;;5012352;28;20226;-53
2023/10/16 08:20:17;;;;;;;15.53;12.07;;;7.10;99.90;;;;;;5005337;28;20221;-53
2023/10/16 08:22:45;;;;;;;10.07;8.90;;;7.60;99.90;;;;;;4996296;28;20321;-52
2023/10/16 08:25:30;;;;;;;9.60;7.37;;;7.50;99.90;;;;;;5004355;28;20247;-53
2023/10/16 08:27:58;;;;;;;10.57;9.50;;;7.60;99.90;;;;;;5012034;28;20205;-53
2023/10/16 08:30:48;;;;;;;11.13;9.57;;;7.70;99.90;;;;;;5012643;28;20241;-52
2023/10/16 08:33:17;;;;;;;10.53;9.20;;;7.70;99.90;;;;;;5020639;28;20201;-52
2023/10/16 08:35:45;;;;;;;12.13;9.53;;;7.80;99.90;;;;;;5019037;28;20235;-52
2023/10/16 08:38:14;;;;;;;11.03;8.83;;;8.10;99.90;;;;;;5017324;28;20278;-52
2023/10/16 08:40:44;;;;;;;9.00;8.10;;;8.20;99.90;;;;;;5017305;28;20824;-52
2023/10/16 08:43:17;;;;;;;9.17;8.10;;;8.50;99.90;;;;;;5012984;28;20248;-52
2023/10/16 08:45:48;;;;;;;9.40;8.23;;;8.60;99.90;;;;;;5012585;28;20205;-52
2023/10/16 08:48:19;;;;;;;7.37;6.67;;;8.80;99.90;;;;;;5018955;28;20812;-53
2023/10/16 08:50:57;;;;;;;8.63;7.77;;;9.20;99.90;;;;;;5013644;28;20734;-53
2023/10/16 08:53:33;;;;;;;7.50;6.77;;;9.80;99.90;;;;;;5018752;28;20199;-53
2023/10/16 08:56:03;;;;;;;7.70;6.93;;;10.00;99.90;;;;;;5032055;28;20201;-52
2023/10/16 08:58:36;;;;;;;8.30;7.30;;;10.10;99.90;;;;;;5032139;28;20200;-53
2023/10/16 09:01:07;;;;;;;6.83;6.23;;;10.40;99.90;;;;;;5019672;28;20311;-53
2023/10/16 09:03:37;;;;;;;5.57;5.07;;;9.80;99.90;;;;;;5026579;28;20643;-53
2023/10/16 09:06:05;;;;;;;6.53;5.90;;;9.80;99.90;;;;;;5024989;28;20202;-53
2023/10/16 09:08:35;;;;;;;5.87;5.33;;;10.30;99.90;;;;;;5023623;28;20569;-53
2023/10/16 09:11:05;;;;;;;4.73;4.43;;;10.60;99.90;;;;;;5031903;28;20706;-53
2023/10/16 09:13:36;;;;;;;7.13;6.47;;;11.10;99.90;;;;;;5017934;28;20223;-53
2023/10/16 09:16:07;;;;;;;5.37;4.97;;;11.60;99.90;;;;;;5013280;28;20292;-53
2023/10/16 09:18:35;;;;;;;6.47;5.87;;;11.70;99.90;;;;;;5011925;28;20199;-53
2023/10/16 09:21:13;;;;;;;5.30;4.87;;;11.90;99.90;;;;;;5011513;28;20223;-53
2023/10/16 09:23:42;;;;;;;3.97;3.77;;;12.20;99.90;;;;;;5016873;28;20202;-53
2023/10/16 09:26:15;;;;;;;4.83;4.20;;;12.60;99.90;;;;;;5017047;28;20216;-53
2023/10/16 09:28:44;;;;;;;4.07;3.53;;;12.90;99.90;;;;;;5026898;28;20720;-53
2023/10/16 09:31:17;;;;;;;4.20;3.93;;;12.90;99.90;;;;;;5018264;28;20628;-53
2023/10/16 09:33:48;;;;;;;3.23;3.13;;;13.20;99.90;;;;;;5027047;28;20204;-53
2023/10/16 09:36:18;;;;;;;4.17;3.83;;;13.30;99.90;;;;;;5026463;28;20303;-53
2023/10/16 09:38:51;;;;;;;3.93;3.57;;;13.30;99.90;;;;;;5017758;28;20230;-53
2023/10/16 09:44:09;;;;;;;3.43;3.17;;;14.10;99.90;;;;;;5009136;28;21693;-53
2023/10/16 09:49:23;;;;;;;3.60;3.40;;;14.20;99.90;;;;;;5015755;28;20229;-53
2023/10/16 09:51:57;;;;;;;3.00;2.80;;;14.10;99.90;;;;;;5020584;28;20209;-53
2023/10/16 09:54:26;;;;;;;3.17;2.97;;;14.50;99.90;;;;;;5012755;28;20706;-53
2023/10/16 09:56:59;;;;;;;4.00;1.67;;;14.90;99.90;;;;;;5013068;28;20254;-53
2023/10/16 09:59:31;;;;;;;2.83;2.20;;;14.90;99.90;;;;;;5013743;28;20281;-53
2023/10/16 10:02:05;;;;;;;2.43;2.23;;;15.70;99.90;;;;;;5024896;28;20207;-53
2023/10/16 10:04:35;;;;;;;2.37;2.20;;;15.80;99.90;;;;;;5022328;28;20206;-53
2023/10/16 10:07:11;;;;;;;2.77;2.57;;;16.20;99.90;;;;;;5009408;28;20199;-53
2023/10/16 10:09:44;;;;;;;3.03;2.83;;;16.20;99.90;;;;;;5020324;28;20233;-53
2023/10/16 10:12:37;;;;;;;2.63;2.43;;;16.20;99.90;;;;;;5016134;28;20230;-53
2023/10/16 10:15:14;;;;;;;2.03;1.63;;;16.00;99.90;;;;;;5020013;28;20204;-53
2023/10/16 10:17:43;;;;;;;1.47;1.47;;;16.40;99.90;;;;;;5014681;28;20211;-53
2023/10/16 10:20:23;;;;;;;1.33;1.30;;;16.30;99.90;;;;;;5028312;28;20285;-53
2023/10/16 10:22:55;;;;;;;1.83;1.70;;;15.60;99.90;;;;;;5020132;28;20238;-53
2023/10/16 10:25:37;;;;;;;1.57;1.57;;;15.50;99.90;;;;;;5019618;28;20207;-53
2023/10/16 10:28:10;;;;;;;1.97;1.77;;;15.60;99.90;;;;;;5007976;28;20204;-53
2023/10/16 10:30:43;;;;;;;2.07;1.97;;;15.80;99.90;;;;;;5014042;28;20234;-53
2023/10/16 10:33:11;;;;;;;1.47;1.00;;;15.10;99.90;;;;;;5013679;28;20218;-53
2023/10/16 10:35:43;;;;;;;1.53;1.43;;;14.90;99.90;;;;;;5014507;28;20199;-52
2023/10/16 10:38:20;;;;;;;1.47;1.47;;;14.40;99.90;;;;;;5014659;28;20217;-53
2023/10/16 10:41:15;;;;;;;1.27;1.13;;;14.30;99.90;;;;;;5014594;28;20227;-53
2023/10/16 10:43:47;;;;;;;1.70;1.63;;;14.00;99.90;;;;;;5013459;28;20283;-53
2023/10/16 10:46:15;;;;;;;2.63;1.57;;;14.00;99.90;;;;;;5014691;28;20226;-53
2023/10/16 10:48:46;;;;;;;1.73;1.30;;;13.90;99.90;;;;;;5014105;28;20290;-53
2023/10/16 10:51:14;;;;;;;1.33;1.23;;;13.90;99.90;;;;;;5014109;28;20309;-53
2023/10/16 10:53:54;;;;;;;2.10;1.27;;;13.80;99.90;;;;;;5013563;28;20228;-53
2023/10/16 10:56:21;;;;;;;1.63;1.53;;;13.70;99.90;;;;;;5014303;28;20267;-52
2023/10/16 10:58:49;;;;;;;0.80;0.80;;;13.50;99.90;;;;;;5013462;28;20201;-53
2023/10/16 11:01:26;;;;;;;1.27;1.17;;;13.40;99.90;;;;;;4998050;28;20297;-53
2023/10/16 11:03:57;;;;;;;1.63;1.00;;;13.50;99.90;;;;;;5013722;28;20682;-53
2023/10/16 11:09:18;;;;;;;1.13;1.13;;;13.70;99.90;;;;;;5013798;28;20240;-53
2023/10/16 11:11:47;;;;;;;1.43;1.33;;;13.60;99.90;;;;;;5014329;28;20209;-52
2023/10/16 11:14:15;;;;;;;1.67;1.53;;;13.40;99.90;;;;;;5013580;28;20203;-53
2023/10/16 11:16:48;;;;;;;1.67;1.47;;;13.10;99.90;;;;;;5021083;28;20203;-52
2023/10/16 11:19:27;;;;;;;2.80;1.20;;;13.10;99.90;;;;;;5013867;28;20253;-52
2023/10/16 11:21:57;;;;;;;1.17;1.17;;;12.80;99.90;;;;;;5013750;28;20296;-53
2023/10/16 11:24:25;;;;;;;1.52;1.42;;;12.90;99.90;;;;;;5011608;28;20474;-53
2023/10/16 11:26:54;;;;;;;1.03;0.90;;;12.60;99.90;;;;;;5012763;28;20216;-55
2023/10/16 11:29:22;;;;;;;1.43;1.07;;;12.70;99.90;;;;;;5013016;28;20235;-56
2023/10/16 11:31:52;;;;;;;0.93;0.90;;;12.70;99.90;;;;;;5012349;28;20207;-57
2023/10/16 11:34:24;;;;;;;1.17;0.80;;;12.80;99.90;;;;;;4996918;28;20621;-57
2023/10/16 11:36:51;;;;;;;2.53;1.10;;;12.70;99.90;;;;;;5016704;28;20296;-57
2023/10/16 11:39:23;;;;;;;1.17;0.73;;;12.80;99.90;;;;;;5014926;28;20701;-57
2023/10/16 11:41:51;;;;;;;0.80;0.80;;;12.80;99.90;;;;;;5017929;28;20205;-57
2023/10/16 11:44:19;;;;;;;1.87;0.53;;;12.90;99.90;;;;;;5023209;28;20201;-57
2023/10/16 11:46:51;;;;;;;3.70;1.17;;;12.90;99.90;;;;;;5017558;28;20195;-55
2023/10/16 11:49:28;;;;;;;1.03;1.00;;;12.90;99.90;;;;;;5009085;28;20573;-55
2023/10/16 11:52:08;;;;;;;3.03;0.90;;;12.90;99.90;;;;;;5030583;28;20240;-56
2023/10/16 11:54:40;;;;;;;0.93;0.77;;;13.00;99.90;;;;;;5035183;28;20581;-57
2023/10/16 11:57:07;;;;;;;0.80;0.80;;;12.80;99.90;;;;;;5025483;28;20202;-57
2023/10/16 11:59:34;;;;;;;1.90;0.90;;;12.80;99.90;;;;;;5025108;28;20703;-57
2023/10/16 12:02:10;;;;;;;1.33;1.23;;;12.90;99.90;;;;;;5032893;28;20201;-55
2023/10/16 12:04:40;;;;;;;1.40;1.30;;;12.90;99.90;;;;;;5024838;28;20212;-55
2023/10/16 12:07:07;;;;;;;0.90;0.90;;;12.80;99.90;;;;;;5020292;28;20286;-55
2023/10/16 12:09:38;;;;;;;1.30;1.00;;;12.90;99.90;;;;;;5021075;28;20708;-55
2023/10/16 12:12:06;;;;;;;0.80;0.80;;;12.90;99.90;;;;;;5013030;28;20247;-54
2023/10/16 12:14:37;;;;;;;1.43;0.93;;;13.10;99.90;;;;;;5012393;28;20209;-55
2023/10/16 12:17:06;;;;;;;1.43;1.33;;;13.30;99.90;;;;;;5012679;28;20290;-55
2023/10/16 12:19:33;;;;;;;2.83;1.20;;;13.20;99.90;;;;;;5024773;28;20217;-55
2023/10/16 12:22:00;;;;;;;1.50;1.17;;;13.10;99.90;;;;;;5015579;28;20625;-55
2023/10/16 12:24:27;;;;;;;1.57;1.10;;;13.20;99.90;;;;;;5000307;28;20202;-56
2023/10/16 12:26:56;;;;;;;1.50;0.70;;;13.10;99.90;;;;;;5011287;28;20203;-56
2023/10/16 12:29:23;;;;;;;3.13;1.10;;;13.10;99.90;;;;;;5014623;28;20301;-55
2023/10/16 12:31:50;;;;;;;1.10;1.00;;;13.10;99.90;;;;;;5013800;28;20199;-56
2023/10/16 12:34:17;;;;;;;2.43;1.60;;;13.20;99.90;;;;;;5013174;28;20558;-57
2023/10/16 12:36:44;;;;;;;1.97;1.33;;;13.20;99.90;;;;;;5010892;28;20267;-57
2023/10/16 12:39:16;;;;;;;1.67;1.20;;;13.10;99.90;;;;;;5002636;28;20215;-55
2023/10/16 12:41:43;;;;;;;2.83;1.10;;;13.10;99.90;;;;;;4999752;28;20217;-55
2023/10/16 12:44:12;;;;;;;1.37;1.13;;;13.20;99.90;;;;;;4993439;28;20204;-55
2023/10/16 12:46:39;;;;;;;2.50;1.03;;;13.10;99.90;;;;;;5007762;28;20207;-56
2023/10/16 12:49:07;;;;;;;1.80;1.30;;;13.10;99.90;;;;;;5012719;28;20207;-56
2023/10/16 12:51:35;;;;;;;1.43;1.33;;;13.10;99.90;;;;;;5010614;28;20260;-56
2023/10/16 12:54:03;;;;;;;1.60;1.17;;;13.20;99.90;;;;;;5004475;28;20245;-56
2023/10/16 12:56:31;;;;;;;1.20;1.10;;;13.30;99.90;;;;;;5013094;28;20733;-55
2023/10/16 12:58:58;;;;;;;1.60;1.50;;;13.20;99.90;;;;;;5013512;28;20731;-57
2023/10/16 13:01:27;;;;;;;2.17;1.07;;;13.20;99.90;;;;;;5013496;28;20256;-56
2023/10/16 13:03:59;;;;;;;0.90;0.90;;;13.10;99.90;;;;;;5011994;28;20199;-54
2023/10/16 13:06:27;;;;;;;2.53;1.03;;;13.00;99.90;;;;;;5009594;28;20213;-54
2023/10/16 13:08:56;;;;;;;2.47;0.90;;;13.00;99.90;;;;;;4997841;28;20210;-54
2023/10/16 13:11:23;;;;;;;1.47;0.93;;;13.00;99.90;;;;;;5002714;28;20237;-54
2023/10/16 13:13:50;;;;;;;1.53;0.90;;;13.10;99.90;;;;;;5010030;28;20653;-54
2023/10/16 13:16:24;;;;;;;1.17;0.83;;;13.00;99.90;;;;;;4999424;28;20207;-54
2023/10/16 13:18:57;;;;;;;1.77;1.07;;;13.10;99.90;;;;;;5006890;28;20687;-54
2023/10/16 13:21:32;;;;;;;1.07;0.80;;;13.20;99.90;;;;;;5013943;28;20221;-54
2023/10/16 13:24:00;;;;;;;1.23;1.10;;;13.30;99.90;;;;;;5005529;28;20212;-54
2023/10/16 13:26:31;;;;;;;0.87;0.87;;;13.20;99.90;;;;;;5009309;28;20199;-54
2023/10/16 13:28:57;;;;;;;0.83;0.80;;;13.30;99.90;;;;;;5016028;28;20211;-54
2023/10/16 13:31:24;;;;;;;2.07;1.20;;;13.30;99.90;;;;;;5015664;28;20230;-56
2023/10/16 13:33:53;;;;;;;3.10;1.17;;;13.30;99.90;;;;;;5015167;28;20283;-54
2023/10/16 13:36:20;;;;;;;1.43;1.00;;;13.20;99.90;;;;;;5007398;28;20562;-54
2023/10/16 13:38:51;;;;;;;1.10;1.10;;;13.30;99.90;;;;;;5014743;28;20215;-54
2023/10/16 13:41:18;;;;;;;1.83;1.03;;;13.30;99.90;;;;;;5001051;28;20226;-54
2023/10/16 13:43:48;;;;;;;2.37;1.40;;;13.20;99.90;;;;;;5015149;28;20205;-54
2023/10/16 13:46:16;;;;;;;1.23;0.90;;;13.20;99.90;;;;;;5014316;28;20199;-54
2023/10/16 13:48:47;;;;;;;0.80;0.80;;;13.20;99.90;;;;;;5015343;28;20257;-54
2023/10/16 13:51:17;;;;;;;1.20;0.73;;;13.20;99.90;;;;;;5028251;28;20235;-55
2023/10/16 13:53:46;;;;;;;0.80;0.80;;;13.20;99.90;;;;;;5025321;28;20241;-54
2023/10/16 13:56:16;;;;;;;1.03;1.03;;;13.30;99.90;;;;;;5026346;28;20233;-54
2023/10/16 13:58:45;;;;;;;0.83;0.83;;;13.30;99.90;;;;;;5020248;28;20220;-54
2023/10/16 14:01:12;;;;;;;0.70;0.70;;;13.30;99.90;;;;;;5015682;28;20211;-54
2023/10/16 14:03:40;;;;;;;3.30;1.03;;;13.20;99.90;;;;;;5026142;28;20213;-54
2023/10/16 14:06:12;;;;;;;1.33;0.73;;;13.20;99.90;;;;;;5034920;28;20686;-54
2023/10/16 14:08:41;;;;;;;0.80;0.80;;;13.10;99.90;;;;;;5034821;28;20206;-54
2023/10/16 14:11:11;;;;;;;0.93;0.90;;;13.10;99.90;;;;;;5027393;28;20226;-54
2023/10/16 14:13:40;;;;;;;1.40;0.70;;;13.10;99.90;;;;;;5012877;28;20207;-54
2023/10/16 14:16:10;;;;;;;1.23;0.80;;;13.00;99.90;;;;;;5023220;28;20201;-54
2023/10/16 14:18:38;;;;;;;1.23;1.10;;;13.10;99.90;;;;;;5013949;28;20206;-54
2023/10/16 14:21:08;;;;;;;1.13;0.90;;;13.10;99.90;;;;;;5014330;28;20218;-54
2023/10/16 14:23:38;;;;;;;2.60;1.70;;;13.10;99.90;;;;;;5014011;28;20203;-54
2023/10/16 14:26:12;;;;;;;0.70;0.70;;;13.00;99.90;;;;;;5022463;28;20201;-54
2023/10/16 14:28:44;;;;;;;0.90;0.90;;;12.90;99.90;;;;;;5011645;28;20280;-54